sensor_id;sensor_type;location;lat;lon;timestamp;temperature;humidity
262;DHT22;114;48.260;10.988;2023-05-21T00:02:26;14.30;67.10
262;DHT22;114;48.260;10.988;2023-05-21T00:04:54;14.30;66.40
262;DHT22;114;48.260;10.988;2023-05-21T00:07:20;14.20;66.50
262;DHT22;114;48.260;10.988;2023-05-21T00:09:47;14.20;67.20
262;DHT22;114;48.260;10.988;2023-05-21T00:12:13;14.20;67.30
262;DHT22;114;48.260;10.988;2023-05-21T00:14:38;14.20;67.20
262;DHT22;114;48.260;10.988;2023-05-21T00:17:04;14.10;67.30
262;DHT22;114;48.260;10.988;2023-05-21T00:19:30;14.10;67.80
262;DHT22;114;48.260;10.988;2023-05-21T00:21:58;14.10;68.60
262;DHT22;114;48.260;10.988;2023-05-21T00:24:27;14.10;68.10
262;DHT22;114;48.260;10.988;2023-05-21T00:26:53;14.00;68.70
262;DHT22;114;48.260;10.988;2023-05-21T00:29:19;13.90;70.00
262;DHT22;114;48.260;10.988;2023-05-21T00:31:45;13.90;70.60
262;DHT22;114;48.260;10.988;2023-05-21T00:34:12;13.90;70.10
262;DHT22;114;48.260;10.988;2023-05-21T00:36:38;13.90;69.20
262;DHT22;114;48.260;10.988;2023-05-21T00:39:05;13.90;69.80
262;DHT22;114;48.260;10.988;2023-05-21T00:41:30;13.90;68.40
262;DHT22;114;48.260;10.988;2023-05-21T00:43:56;13.80;68.50
262;DHT22;114;48.260;10.988;2023-05-21T00:46:25;13.80;69.30
262;DHT22;114;48.260;10.988;2023-05-21T00:48:53;13.70;68.90
262;DHT22;114;48.260;10.988;2023-05-21T00:51:19;13.80;68.50
262;DHT22;114;48.260;10.988;2023-05-21T00:53:49;13.70;68.50
262;DHT22;114;48.260;10.988;2023-05-21T00:56:18;13.70;69.10
262;DHT22;114;48.260;10.988;2023-05-21T00:58:44;13.60;69.10
262;DHT22;114;48.260;10.988;2023-05-21T01:01:11;13.60;70.20
262;DHT22;114;48.260;10.988;2023-05-21T01:03:39;13.50;71.00
262;DHT22;114;48.260;10.988;2023-05-21T01:06:06;13.50;71.60
262;DHT22;114;48.260;10.988;2023-05-21T01:08:33;13.40;71.40
262;DHT22;114;48.260;10.988;2023-05-21T01:11:03;13.40;71.80
262;DHT22;114;48.260;10.988;2023-05-21T01:13:31;13.40;72.70
262;DHT22;114;48.260;10.988;2023-05-21T01:15:57;13.30;73.80
262;DHT22;114;48.260;10.988;2023-05-21T01:18:25;13.30;74.30
262;DHT22;114;48.260;10.988;2023-05-21T01:20:51;13.20;74.70
262;DHT22;114;48.260;10.988;2023-05-21T01:23:18;13.20;75.70
262;DHT22;114;48.260;10.988;2023-05-21T01:25:45;13.20;75.70
262;DHT22;114;48.260;10.988;2023-05-21T01:28:11;13.20;74.70
262;DHT22;114;48.260;10.988;2023-05-21T01:30:40;13.20;74.00
262;DHT22;114;48.260;10.988;2023-05-21T01:33:18;13.20;74.20
262;DHT22;114;48.260;10.988;2023-05-21T01:36:03;13.20;74.10
262;DHT22;114;48.260;10.988;2023-05-21T01:38:39;13.20;72.80
262;DHT22;114;48.260;10.988;2023-05-21T01:41:13;13.20;72.30
262;DHT22;114;48.260;10.988;2023-05-21T01:43:44;13.20;72.50
262;DHT22;114;48.260;10.988;2023-05-21T01:46:15;13.20;71.40
262;DHT22;114;48.260;10.988;2023-05-21T01:48:43;13.20;69.50
262;DHT22;114;48.260;10.988;2023-05-21T01:51:09;13.10;69.20
262;DHT22;114;48.260;10.988;2023-05-21T01:53:35;13.10;68.60
262;DHT22;114;48.260;10.988;2023-05-21T01:56:03;13.20;69.00
262;DHT22;114;48.260;10.988;2023-05-21T01:58:30;13.10;68.60
262;DHT22;114;48.260;10.988;2023-05-21T02:00:55;13.10;67.80
262;DHT22;114;48.260;10.988;2023-05-21T02:03:24;13.10;67.40
262;DHT22;114;48.260;10.988;2023-05-21T02:05:51;13.10;66.30
262;DHT22;114;48.260;10.988;2023-05-21T02:08:17;13.10;66.60
262;DHT22;114;48.260;10.988;2023-05-21T02:10:44;13.10;67.80
262;DHT22;114;48.260;10.988;2023-05-21T02:13:10;13.10;64.10
262;DHT22;114;48.260;10.988;2023-05-21T02:15:36;13.10;63.20
262;DHT22;114;48.260;10.988;2023-05-21T02:18:02;13.10;62.90
262;DHT22;114;48.260;10.988;2023-05-21T02:20:28;13.10;60.40
262;DHT22;114;48.260;10.988;2023-05-21T02:22:54;13.20;59.50
262;DHT22;114;48.260;10.988;2023-05-21T02:25:20;13.20;59.40
262;DHT22;114;48.260;10.988;2023-05-21T02:27:45;13.10;59.50
262;DHT22;114;48.260;10.988;2023-05-21T02:30:13;13.10;59.20
262;DHT22;114;48.260;10.988;2023-05-21T02:32:40;13.10;58.40
262;DHT22;114;48.260;10.988;2023-05-21T02:35:08;13.10;58.40
262;DHT22;114;48.260;10.988;2023-05-21T02:37:35;13.10;57.20
262;DHT22;114;48.260;10.988;2023-05-21T02:40:02;13.10;57.00
262;DHT22;114;48.260;10.988;2023-05-21T02:42:29;13.00;57.20
262;DHT22;114;48.260;10.988;2023-05-21T02:44:54;13.00;57.40
262;DHT22;114;48.260;10.988;2023-05-21T02:47:21;12.90;58.20
262;DHT22;114;48.260;10.988;2023-05-21T02:49:49;12.90;59.60
262;DHT22;114;48.260;10.988;2023-05-21T02:52:16;12.80;60.10
262;DHT22;114;48.260;10.988;2023-05-21T02:54:45;12.80;59.40
262;DHT22;114;48.260;10.988;2023-05-21T02:57:11;12.80;58.10
262;DHT22;114;48.260;10.988;2023-05-21T02:59:37;12.80;58.10
262;DHT22;114;48.260;10.988;2023-05-21T03:02:03;12.80;57.20
262;DHT22;114;48.260;10.988;2023-05-21T03:04:28;12.80;55.60
262;DHT22;114;48.260;10.988;2023-05-21T03:06:55;12.80;55.60
262;DHT22;114;48.260;10.988;2023-05-21T03:09:21;12.80;57.10
262;DHT22;114;48.260;10.988;2023-05-21T03:11:48;12.80;57.10
262;DHT22;114;48.260;10.988;2023-05-21T03:14:13;12.80;58.70
262;DHT22;114;48.260;10.988;2023-05-21T03:16:40;12.70;60.00
262;DHT22;114;48.260;10.988;2023-05-21T03:19:11;12.70;60.70
262;DHT22;114;48.260;10.988;2023-05-21T03:21:37;12.70;61.80
262;DHT22;114;48.260;10.988;2023-05-21T03:24:04;12.70;61.50
262;DHT22;114;48.260;10.988;2023-05-21T03:26:30;12.60;62.40
262;DHT22;114;48.260;10.988;2023-05-21T03:28:56;12.60;63.90
262;DHT22;114;48.260;10.988;2023-05-21T03:31:24;12.50;64.80
262;DHT22;114;48.260;10.988;2023-05-21T03:33:50;12.50;65.10
262;DHT22;114;48.260;10.988;2023-05-21T03:36:17;12.50;65.40
262;DHT22;114;48.260;10.988;2023-05-21T03:38:43;12.40;65.60
262;DHT22;114;48.260;10.988;2023-05-21T03:41:09;12.40;65.50
262;DHT22;114;48.260;10.988;2023-05-21T03:43:35;12.40;65.30
262;DHT22;114;48.260;10.988;2023-05-21T03:46:01;12.40;64.00
262;DHT22;114;48.260;10.988;2023-05-21T03:48:27;12.40;64.50
262;DHT22;114;48.260;10.988;2023-05-21T03:50:52;12.40;63.30
262;DHT22;114;48.260;10.988;2023-05-21T03:53:18;12.40;61.20
262;DHT22;114;48.260;10.988;2023-05-21T03:55:44;12.40;59.60
262;DHT22;114;48.260;10.988;2023-05-21T03:58:10;12.40;57.80
262;DHT22;114;48.260;10.988;2023-05-21T04:00:36;12.40;57.80
262;DHT22;114;48.260;10.988;2023-05-21T04:03:03;12.40;55.20
262;DHT22;114;48.260;10.988;2023-05-21T04:05:28;12.50;54.40
262;DHT22;114;48.260;10.988;2023-05-21T04:07:54;12.50;53.20
262;DHT22;114;48.260;10.988;2023-05-21T04:10:20;12.50;51.90
262;DHT22;114;48.260;10.988;2023-05-21T04:12:47;12.50;50.70
262;DHT22;114;48.260;10.988;2023-05-21T04:15:17;12.50;50.00
262;DHT22;114;48.260;10.988;2023-05-21T04:17:44;12.60;48.80
262;DHT22;114;48.260;10.988;2023-05-21T04:20:12;12.60;48.60
262;DHT22;114;48.260;10.988;2023-05-21T04:22:38;12.60;44.80
262;DHT22;114;48.260;10.988;2023-05-21T04:25:04;12.60;43.80
262;DHT22;114;48.260;10.988;2023-05-21T04:27:30;12.70;42.20
262;DHT22;114;48.260;10.988;2023-05-21T04:29:56;12.70;43.10
262;DHT22;114;48.260;10.988;2023-05-21T04:32:22;12.70;40.60
262;DHT22;114;48.260;10.988;2023-05-21T04:34:48;12.80;40.10
262;DHT22;114;48.260;10.988;2023-05-21T04:37:14;12.80;38.20
262;DHT22;114;48.260;10.988;2023-05-21T04:39:43;12.90;39.20
262;DHT22;114;48.260;10.988;2023-05-21T04:42:08;12.90;38.80
262;DHT22;114;48.260;10.988;2023-05-21T04:44:36;13.00;37.20
262;DHT22;114;48.260;10.988;2023-05-21T04:47:02;13.00;36.10
262;DHT22;114;48.260;10.988;2023-05-21T04:49:28;13.10;35.40
262;DHT22;114;48.260;10.988;2023-05-21T04:51:54;13.20;33.80
262;DHT22;114;48.260;10.988;2023-05-21T04:54:21;13.30;28.90
262;DHT22;114;48.260;10.988;2023-05-21T04:56:46;13.30;31.20
262;DHT22;114;48.260;10.988;2023-05-21T04:59:13;13.30;32.40
262;DHT22;114;48.260;10.988;2023-05-21T05:01:38;13.40;31.20
262;DHT22;114;48.260;10.988;2023-05-21T05:04:04;13.50;29.80
262;DHT22;114;48.260;10.988;2023-05-21T05:06:30;13.60;30.00
262;DHT22;114;48.260;10.988;2023-05-21T05:08:56;13.70;27.90
262;DHT22;114;48.260;10.988;2023-05-21T05:11:22;13.70;26.90
262;DHT22;114;48.260;10.988;2023-05-21T05:13:47;13.70;26.00
262;DHT22;114;48.260;10.988;2023-05-21T05:16:13;13.80;25.70
262;DHT22;114;48.260;10.988;2023-05-21T05:18:52;13.80;24.30
262;DHT22;114;48.260;10.988;2023-05-21T05:21:17;13.90;23.70
262;DHT22;114;48.260;10.988;2023-05-21T05:23:43;13.80;20.00
262;DHT22;114;48.260;10.988;2023-05-21T05:26:12;13.90;19.90
262;DHT22;114;48.260;10.988;2023-05-21T05:28:38;14.00;20.50
262;DHT22;114;48.260;10.988;2023-05-21T05:31:04;14.10;19.30
262;DHT22;114;48.260;10.988;2023-05-21T05:33:29;14.20;17.50
262;DHT22;114;48.260;10.988;2023-05-21T05:35:55;14.20;16.80
262;DHT22;114;48.260;10.988;2023-05-21T05:38:21;14.30;17.60
262;DHT22;114;48.260;10.988;2023-05-21T05:40:47;14.40;17.40
262;DHT22;114;48.260;10.988;2023-05-21T05:43:12;14.50;15.90
262;DHT22;114;48.260;10.988;2023-05-21T05:45:38;14.60;16.30
262;DHT22;114;48.260;10.988;2023-05-21T05:48:04;14.80;13.60
262;DHT22;114;48.260;10.988;2023-05-21T05:50:30;14.80;10.90
262;DHT22;114;48.260;10.988;2023-05-21T05:52:56;14.80;11.40
262;DHT22;114;48.260;10.988;2023-05-21T05:55:22;14.90;10.40
262;DHT22;114;48.260;10.988;2023-05-21T05:57:49;14.90;9.10
262;DHT22;114;48.260;10.988;2023-05-21T06:00:15;15.00;7.70
262;DHT22;114;48.260;10.988;2023-05-21T06:02:41;15.10;6.40
262;DHT22;114;48.260;10.988;2023-05-21T06:05:07;15.20;5.40
262;DHT22;114;48.260;10.988;2023-05-21T06:07:36;15.10;6.30
262;DHT22;114;48.260;10.988;2023-05-21T06:10:06;15.10;4.50
262;DHT22;114;48.260;10.988;2023-05-21T06:12:33;15.10;4.40
262;DHT22;114;48.260;10.988;2023-05-21T06:14:59;15.20;4.50
262;DHT22;114;48.260;10.988;2023-05-21T06:17:25;15.40;4.70
262;DHT22;114;48.260;10.988;2023-05-21T06:19:50;15.60;2.30
262;DHT22;114;48.260;10.988;2023-05-21T06:22:16;15.60;1.80
262;DHT22;114;48.260;10.988;2023-05-21T06:24:42;15.70;1.00
262;DHT22;114;48.260;10.988;2023-05-21T06:27:07;15.80;1.00
262;DHT22;114;48.260;10.988;2023-05-21T06:29:33;15.90;1.00
262;DHT22;114;48.260;10.988;2023-05-21T06:31:59;16.00;1.00
262;DHT22;114;48.260;10.988;2023-05-21T06:34:26;16.00;1.00
262;DHT22;114;48.260;10.988;2023-05-21T06:36:53;16.10;1.00
262;DHT22;114;48.260;10.988;2023-05-21T06:39:18;16.20;1.00
262;DHT22;114;48.260;10.988;2023-05-21T06:41:44;16.30;1.00
262;DHT22;114;48.260;10.988;2023-05-21T06:44:10;16.30;1.00
262;DHT22;114;48.260;10.988;2023-05-21T06:46:36;16.40;1.00
262;DHT22;114;48.260;10.988;2023-05-21T06:49:01;16.50;1.00
262;DHT22;114;48.260;10.988;2023-05-21T06:51:27;16.70;1.00
262;DHT22;114;48.260;10.988;2023-05-21T06:53:53;16.80;1.00
262;DHT22;114;48.260;10.988;2023-05-21T06:56:19;16.70;1.00
262;DHT22;114;48.260;10.988;2023-05-21T06:58:46;16.70;1.00
262;DHT22;114;48.260;10.988;2023-05-21T07:01:11;16.80;1.00
262;DHT22;114;48.260;10.988;2023-05-21T07:03:37;17.00;1.00
262;DHT22;114;48.260;10.988;2023-05-21T07:06:03;17.00;1.00
262;DHT22;114;48.260;10.988;2023-05-21T07:08:29;17.00;1.00
262;DHT22;114;48.260;10.988;2023-05-21T07:10:54;17.10;1.00
262;DHT22;114;48.260;10.988;2023-05-21T07:13:23;17.10;1.00
262;DHT22;114;48.260;10.988;2023-05-21T07:15:48;17.30;1.00
262;DHT22;114;48.260;10.988;2023-05-21T07:18:14;17.30;1.00
262;DHT22;114;48.260;10.988;2023-05-21T07:20:41;17.50;1.00
262;DHT22;114;48.260;10.988;2023-05-21T07:23:07;17.60;1.00
262;DHT22;114;48.260;10.988;2023-05-21T07:25:32;17.70;1.00
262;DHT22;114;48.260;10.988;2023-05-21T07:27:58;17.90;1.00
262;DHT22;114;48.260;10.988;2023-05-21T07:30:24;17.90;1.00
262;DHT22;114;48.260;10.988;2023-05-21T07:32:50;18.00;1.00
262;DHT22;114;48.260;10.988;2023-05-21T07:35:15;18.10;1.00
262;DHT22;114;48.260;10.988;2023-05-21T07:37:41;18.10;1.00
262;DHT22;114;48.260;10.988;2023-05-21T07:40:07;18.20;1.00
262;DHT22;114;48.260;10.988;2023-05-21T07:42:33;18.20;1.00
262;DHT22;114;48.260;10.988;2023-05-21T07:44:59;18.30;1.00
262;DHT22;114;48.260;10.988;2023-05-21T07:47:25;18.40;1.00
262;DHT22;114;48.260;10.988;2023-05-21T07:49:51;18.50;1.00
262;DHT22;114;48.260;10.988;2023-05-21T07:52:16;18.60;1.00
262;DHT22;114;48.260;10.988;2023-05-21T07:54:42;19.00;1.00
262;DHT22;114;48.260;10.988;2023-05-21T07:57:08;19.10;1.00
262;DHT22;114;48.260;10.988;2023-05-21T07:59:34;19.30;1.00
262;DHT22;114;48.260;10.988;2023-05-21T08:01:59;19.30;1.00
262;DHT22;114;48.260;10.988;2023-05-21T08:04:25;19.00;1.00
262;DHT22;114;48.260;10.988;2023-05-21T08:06:51;19.40;1.00
262;DHT22;114;48.260;10.988;2023-05-21T08:09:18;19.20;1.00
262;DHT22;114;48.260;10.988;2023-05-21T08:11:44;19.60;1.00
262;DHT22;114;48.260;10.988;2023-05-21T08:14:10;19.70;1.00
262;DHT22;114;48.260;10.988;2023-05-21T08:16:36;20.00;1.00
262;DHT22;114;48.260;10.988;2023-05-21T08:19:02;20.10;1.00
262;DHT22;114;48.260;10.988;2023-05-21T08:21:28;20.20;1.00
262;DHT22;114;48.260;10.988;2023-05-21T08:23:54;20.20;1.00
262;DHT22;114;48.260;10.988;2023-05-21T08:26:20;20.40;1.00
262;DHT22;114;48.260;10.988;2023-05-21T08:28:46;20.60;1.00
262;DHT22;114;48.260;10.988;2023-05-21T08:31:12;20.80;1.00
262;DHT22;114;48.260;10.988;2023-05-21T08:33:38;20.80;1.00
262;DHT22;114;48.260;10.988;2023-05-21T08:36:07;21.30;1.00
262;DHT22;114;48.260;10.988;2023-05-21T08:38:33;21.90;1.00
262;DHT22;114;48.260;10.988;2023-05-21T08:40:59;22.10;1.00
262;DHT22;114;48.260;10.988;2023-05-21T08:43:28;22.20;1.00
262;DHT22;114;48.260;10.988;2023-05-21T08:45:55;22.30;1.00
262;DHT22;114;48.260;10.988;2023-05-21T08:48:23;22.50;1.00
262;DHT22;114;48.260;10.988;2023-05-21T08:50:53;22.40;1.00
262;DHT22;114;48.260;10.988;2023-05-21T08:53:20;22.70;1.00
262;DHT22;114;48.260;10.988;2023-05-21T08:55:55;22.80;1.00
262;DHT22;114;48.260;10.988;2023-05-21T08:58:21;23.10;1.00
262;DHT22;114;48.260;10.988;2023-05-21T09:00:47;23.30;1.00
262;DHT22;114;48.260;10.988;2023-05-21T09:03:14;23.60;1.00
262;DHT22;114;48.260;10.988;2023-05-21T09:05:40;23.80;1.00
262;DHT22;114;48.260;10.988;2023-05-21T09:08:28;23.80;1.00
262;DHT22;114;48.260;10.988;2023-05-21T09:10:55;23.60;1.00
262;DHT22;114;48.260;10.988;2023-05-21T09:13:24;23.90;1.00
262;DHT22;114;48.260;10.988;2023-05-21T09:15:50;23.70;1.00
262;DHT22;114;48.260;10.988;2023-05-21T09:18:16;23.70;1.00
262;DHT22;114;48.260;10.988;2023-05-21T09:20:43;23.90;1.00
262;DHT22;114;48.260;10.988;2023-05-21T09:23:09;23.90;1.00
262;DHT22;114;48.260;10.988;2023-05-21T09:25:41;23.70;1.00
262;DHT22;114;48.260;10.988;2023-05-21T09:28:15;23.70;1.00
262;DHT22;114;48.260;10.988;2023-05-21T09:30:44;24.00;1.00
262;DHT22;114;48.260;10.988;2023-05-21T09:33:11;24.00;1.00
262;DHT22;114;48.260;10.988;2023-05-21T09:35:43;24.20;1.00
262;DHT22;114;48.260;10.988;2023-05-21T09:38:09;24.80;1.00
262;DHT22;114;48.260;10.988;2023-05-21T09:40:34;24.90;1.00
262;DHT22;114;48.260;10.988;2023-05-21T09:43:01;24.60;1.00
262;DHT22;114;48.260;10.988;2023-05-21T09:45:27;24.30;1.00
262;DHT22;114;48.260;10.988;2023-05-21T09:47:54;24.00;1.00
262;DHT22;114;48.260;10.988;2023-05-21T09:50:26;24.10;1.00
262;DHT22;114;48.260;10.988;2023-05-21T09:52:52;24.20;1.00
262;DHT22;114;48.260;10.988;2023-05-21T09:55:24;24.20;1.00
262;DHT22;114;48.260;10.988;2023-05-21T09:57:51;24.30;1.00
262;DHT22;114;48.260;10.988;2023-05-21T10:02:47;24.90;1.00
262;DHT22;114;48.260;10.988;2023-05-21T10:05:15;25.20;1.00
262;DHT22;114;48.260;10.988;2023-05-21T10:07:43;25.20;1.00
262;DHT22;114;48.260;10.988;2023-05-21T10:10:12;25.10;1.00
262;DHT22;114;48.260;10.988;2023-05-21T10:12:42;25.20;1.00
262;DHT22;114;48.260;10.988;2023-05-21T10:15:13;25.50;1.00
262;DHT22;114;48.260;10.988;2023-05-21T10:17:43;25.30;1.00
262;DHT22;114;48.260;10.988;2023-05-21T10:20:11;24.80;1.00
262;DHT22;114;48.260;10.988;2023-05-21T10:22:38;24.70;1.00
262;DHT22;114;48.260;10.988;2023-05-21T10:25:06;24.60;1.00
262;DHT22;114;48.260;10.988;2023-05-21T10:27:36;24.40;1.00
262;DHT22;114;48.260;10.988;2023-05-21T10:30:05;24.50;1.00
262;DHT22;114;48.260;10.988;2023-05-21T10:32:31;24.80;1.00
262;DHT22;114;48.260;10.988;2023-05-21T10:34:58;24.90;1.00
262;DHT22;114;48.260;10.988;2023-05-21T10:37:25;25.10;1.00
262;DHT22;114;48.260;10.988;2023-05-21T10:39:53;25.20;1.00
262;DHT22;114;48.260;10.988;2023-05-21T10:42:45;25.60;1.00
262;DHT22;114;48.260;10.988;2023-05-21T10:48:14;25.70;1.00
262;DHT22;114;48.260;10.988;2023-05-21T10:59:11;25.20;1.00
262;DHT22;114;48.260;10.988;2023-05-21T11:01:40;25.30;1.00
262;DHT22;114;48.260;10.988;2023-05-21T11:04:06;25.20;1.00
262;DHT22;114;48.260;10.988;2023-05-21T11:06:32;25.40;1.00
262;DHT22;114;48.260;10.988;2023-05-21T11:09:11;25.50;1.00
262;DHT22;114;48.260;10.988;2023-05-21T11:11:50;25.80;1.00
262;DHT22;114;48.260;10.988;2023-05-21T11:14:33;25.60;1.00
262;DHT22;114;48.260;10.988;2023-05-21T11:19:44;25.60;1.00
262;DHT22;114;48.260;10.988;2023-05-21T11:22:22;25.60;1.00
262;DHT22;114;48.260;10.988;2023-05-21T11:24:49;25.50;1.00
262;DHT22;114;48.260;10.988;2023-05-21T11:27:36;25.60;1.00
262;DHT22;114;48.260;10.988;2023-05-21T11:30:20;25.90;1.00
262;DHT22;114;48.260;10.988;2023-05-21T11:38:09;26.60;1.00
262;DHT22;114;48.260;10.988;2023-05-21T11:40:35;26.30;1.00
262;DHT22;114;48.260;10.988;2023-05-21T11:43:01;26.20;1.00
262;DHT22;114;48.260;10.988;2023-05-21T11:45:31;26.20;1.00
262;DHT22;114;48.260;10.988;2023-05-21T11:47:57;26.30;1.00
262;DHT22;114;48.260;10.988;2023-05-21T11:50:23;26.40;1.00
262;DHT22;114;48.260;10.988;2023-05-21T11:52:50;26.80;1.00
262;DHT22;114;48.260;10.988;2023-05-21T11:55:20;27.10;1.00
262;DHT22;114;48.260;10.988;2023-05-21T11:57:47;27.50;1.00
262;DHT22;114;48.260;10.988;2023-05-21T12:00:17;27.70;1.00
262;DHT22;114;48.260;10.988;2023-05-21T12:02:49;27.80;1.00
262;DHT22;114;48.260;10.988;2023-05-21T12:05:15;27.70;1.00
262;DHT22;114;48.260;10.988;2023-05-21T12:07:41;27.60;1.00
262;DHT22;114;48.260;10.988;2023-05-21T12:10:07;27.50;1.00
262;DHT22;114;48.260;10.988;2023-05-21T12:12:33;27.60;1.00
262;DHT22;114;48.260;10.988;2023-05-21T12:15:00;27.80;1.00
262;DHT22;114;48.260;10.988;2023-05-21T12:17:26;27.90;1.00
262;DHT22;114;48.260;10.988;2023-05-21T12:19:56;27.90;1.00
262;DHT22;114;48.260;10.988;2023-05-21T12:22:22;28.00;1.00
262;DHT22;114;48.260;10.988;2023-05-21T12:24:49;28.10;1.00
262;DHT22;114;48.260;10.988;2023-05-21T12:27:15;28.10;1.00
262;DHT22;114;48.260;10.988;2023-05-21T12:29:44;28.00;1.00
262;DHT22;114;48.260;10.988;2023-05-21T12:32:11;28.00;1.00
262;DHT22;114;48.260;10.988;2023-05-21T12:34:51;28.30;1.00
262;DHT22;114;48.260;10.988;2023-05-21T12:37:27;28.70;1.00
262;DHT22;114;48.260;10.988;2023-05-21T12:40:01;28.70;1.00
262;DHT22;114;48.260;10.988;2023-05-21T12:42:31;29.00;1.00
262;DHT22;114;48.260;10.988;2023-05-21T12:45:00;29.40;1.00
262;DHT22;114;48.260;10.988;2023-05-21T12:47:27;30.10;1.00
262;DHT22;114;48.260;10.988;2023-05-21T12:50:03;30.70;1.00
262;DHT22;114;48.260;10.988;2023-05-21T12:52:32;30.90;1.00
262;DHT22;114;48.260;10.988;2023-05-21T12:54:58;31.20;1.00
262;DHT22;114;48.260;10.988;2023-05-21T12:57:26;31.30;1.00
262;DHT22;114;48.260;10.988;2023-05-21T12:59:56;31.30;1.00
262;DHT22;114;48.260;10.988;2023-05-21T13:02:34;30.90;1.00
262;DHT22;114;48.260;10.988;2023-05-21T13:05:07;29.70;1.00
262;DHT22;114;48.260;10.988;2023-05-21T13:07:37;29.80;1.00
262;DHT22;114;48.260;10.988;2023-05-21T13:10:04;30.20;1.00
262;DHT22;114;48.260;10.988;2023-05-21T13:12:31;30.20;1.00
262;DHT22;114;48.260;10.988;2023-05-21T13:14:59;30.00;1.00
262;DHT22;114;48.260;10.988;2023-05-21T13:17:25;30.30;1.00
262;DHT22;114;48.260;10.988;2023-05-21T13:20:11;30.40;1.00
262;DHT22;114;48.260;10.988;2023-05-21T13:22:39;31.30;1.00
262;DHT22;114;48.260;10.988;2023-05-21T13:25:11;31.70;1.00
262;DHT22;114;48.260;10.988;2023-05-21T13:27:40;31.70;1.00
262;DHT22;114;48.260;10.988;2023-05-21T13:30:07;31.60;1.00
262;DHT22;114;48.260;10.988;2023-05-21T13:32:33;31.40;1.00
262;DHT22;114;48.260;10.988;2023-05-21T13:34:58;30.80;1.00
262;DHT22;114;48.260;10.988;2023-05-21T13:37:24;30.30;1.00
262;DHT22;114;48.260;10.988;2023-05-21T13:39:50;30.00;1.00
262;DHT22;114;48.260;10.988;2023-05-21T13:42:16;29.80;1.00
262;DHT22;114;48.260;10.988;2023-05-21T13:44:42;29.70;1.00
262;DHT22;114;48.260;10.988;2023-05-21T13:47:08;29.50;1.00
262;DHT22;114;48.260;10.988;2023-05-21T13:49:35;29.50;1.00
262;DHT22;114;48.260;10.988;2023-05-21T13:52:01;29.40;1.00
262;DHT22;114;48.260;10.988;2023-05-21T13:54:28;30.00;1.00
262;DHT22;114;48.260;10.988;2023-05-21T13:56:54;30.50;1.00
262;DHT22;114;48.260;10.988;2023-05-21T13:59:20;31.00;1.00
262;DHT22;114;48.260;10.988;2023-05-21T14:01:46;31.80;1.00
262;DHT22;114;48.260;10.988;2023-05-21T14:04:16;32.80;1.00
262;DHT22;114;48.260;10.988;2023-05-21T14:06:42;33.50;1.00
262;DHT22;114;48.260;10.988;2023-05-21T14:09:07;33.70;1.00
262;DHT22;114;48.260;10.988;2023-05-21T14:11:33;33.50;1.00
262;DHT22;114;48.260;10.988;2023-05-21T14:14:00;33.10;1.00
262;DHT22;114;48.260;10.988;2023-05-21T14:16:26;33.40;1.00
262;DHT22;114;48.260;10.988;2023-05-21T14:18:55;33.50;1.00
262;DHT22;114;48.260;10.988;2023-05-21T14:21:21;34.00;1.00
262;DHT22;114;48.260;10.988;2023-05-21T14:23:47;34.40;1.00
262;DHT22;114;48.260;10.988;2023-05-21T14:26:14;34.60;1.00
262;DHT22;114;48.260;10.988;2023-05-21T14:28:40;34.30;1.00
262;DHT22;114;48.260;10.988;2023-05-21T14:31:06;33.90;1.00
262;DHT22;114;48.260;10.988;2023-05-21T14:33:32;34.20;1.00
262;DHT22;114;48.260;10.988;2023-05-21T14:35:59;34.90;1.00
262;DHT22;114;48.260;10.988;2023-05-21T14:38:25;35.30;1.00
262;DHT22;114;48.260;10.988;2023-05-21T14:40:52;35.40;1.00
262;DHT22;114;48.260;10.988;2023-05-21T14:43:17;35.20;1.00
262;DHT22;114;48.260;10.988;2023-05-21T14:45:43;34.80;1.00
262;DHT22;114;48.260;10.988;2023-05-21T14:48:09;33.50;1.00
262;DHT22;114;48.260;10.988;2023-05-21T14:50:38;33.50;1.00
262;DHT22;114;48.260;10.988;2023-05-21T14:53:08;32.80;1.00
262;DHT22;114;48.260;10.988;2023-05-21T14:55:34;32.60;1.00
262;DHT22;114;48.260;10.988;2023-05-21T14:58:03;31.80;1.00
262;DHT22;114;48.260;10.988;2023-05-21T15:00:30;31.10;1.00
262;DHT22;114;48.260;10.988;2023-05-21T15:02:56;30.80;1.00
262;DHT22;114;48.260;10.988;2023-05-21T15:05:22;30.40;1.00
262;DHT22;114;48.260;10.988;2023-05-21T15:07:48;29.80;1.00
262;DHT22;114;48.260;10.988;2023-05-21T15:10:14;29.90;1.00
262;DHT22;114;48.260;10.988;2023-05-21T15:12:40;29.50;1.00
262;DHT22;114;48.260;10.988;2023-05-21T15:15:06;29.90;1.00
262;DHT22;114;48.260;10.988;2023-05-21T15:17:33;29.80;1.00
262;DHT22;114;48.260;10.988;2023-05-21T15:19:59;29.50;1.00
262;DHT22;114;48.260;10.988;2023-05-21T15:22:29;29.30;1.00
262;DHT22;114;48.260;10.988;2023-05-21T15:24:55;29.20;1.00
262;DHT22;114;48.260;10.988;2023-05-21T15:27:21;29.20;1.00
262;DHT22;114;48.260;10.988;2023-05-21T15:29:48;29.40;1.00
262;DHT22;114;48.260;10.988;2023-05-21T15:32:13;29.60;1.00
262;DHT22;114;48.260;10.988;2023-05-21T15:34:39;29.80;1.00
262;DHT22;114;48.260;10.988;2023-05-21T15:37:05;29.60;1.00
262;DHT22;114;48.260;10.988;2023-05-21T15:39:30;29.50;1.00
262;DHT22;114;48.260;10.988;2023-05-21T15:41:56;29.50;1.00
262;DHT22;114;48.260;10.988;2023-05-21T15:44:24;29.40;1.00
262;DHT22;114;48.260;10.988;2023-05-21T15:46:50;29.30;1.00
262;DHT22;114;48.260;10.988;2023-05-21T15:49:18;29.00;1.00
262;DHT22;114;48.260;10.988;2023-05-21T15:51:45;29.10;1.00
262;DHT22;114;48.260;10.988;2023-05-21T15:54:11;29.40;1.00
262;DHT22;114;48.260;10.988;2023-05-21T15:56:42;29.80;1.00
262;DHT22;114;48.260;10.988;2023-05-21T15:59:08;29.90;1.00
262;DHT22;114;48.260;10.988;2023-05-21T16:01:33;30.20;1.00
262;DHT22;114;48.260;10.988;2023-05-21T16:04:00;30.50;1.00
262;DHT22;114;48.260;10.988;2023-05-21T16:06:27;30.50;1.00
262;DHT22;114;48.260;10.988;2023-05-21T16:08:52;30.40;1.00
262;DHT22;114;48.260;10.988;2023-05-21T16:11:18;30.30;1.00
262;DHT22;114;48.260;10.988;2023-05-21T16:13:44;29.50;1.00
262;DHT22;114;48.260;10.988;2023-05-21T16:16:09;29.60;1.00
262;DHT22;114;48.260;10.988;2023-05-21T16:18:36;29.70;1.00
262;DHT22;114;48.260;10.988;2023-05-21T16:21:02;29.60;1.00
262;DHT22;114;48.260;10.988;2023-05-21T16:23:28;29.40;1.00
262;DHT22;114;48.260;10.988;2023-05-21T16:25:54;29.40;1.00
262;DHT22;114;48.260;10.988;2023-05-21T16:28:20;29.50;1.00
262;DHT22;114;48.260;10.988;2023-05-21T16:30:48;29.00;1.00
262;DHT22;114;48.260;10.988;2023-05-21T16:33:14;29.30;1.00
262;DHT22;114;48.260;10.988;2023-05-21T16:35:40;29.30;1.00
262;DHT22;114;48.260;10.988;2023-05-21T16:38:06;29.10;1.00
262;DHT22;114;48.260;10.988;2023-05-21T16:40:32;28.60;1.00
262;DHT22;114;48.260;10.988;2023-05-21T16:42:58;27.90;1.00
262;DHT22;114;48.260;10.988;2023-05-21T16:45:23;26.90;1.00
262;DHT22;114;48.260;10.988;2023-05-21T16:47:50;26.90;1.00
262;DHT22;114;48.260;10.988;2023-05-21T16:50:17;26.40;1.00
262;DHT22;114;48.260;10.988;2023-05-21T16:52:42;26.10;1.00